Latest Coastal Weather Observations for Pirlangimpi (Garden Point)

IDD60701

Issued at 11:31 pm CST Tuesday 21 February 2017 (issued every 10 minutes, with the page automatically refreshed every 10 minutes)

About coastal observations | Map of coastal stations | Coastal observations for NT | Marine services | Other Formats
Station Details ID: 014142 Name: PIRLANGIMPI AIRPORT Lat: -11.40 Lon: 130.42 Height: 18.3 m
Data from the previous 72 hours. | See also: Recent months at Pirlangimpi (Garden Point)
Date/Time
CST
Temp
°C
Wind Pressure Rain since
9am
mm
Weather Cloud Vis
km
Sea
Height
m
Swell
Dir  Spd
kts
Gust
kts
hPa Trend Height
m
Period
s
Dir
21/11:00pm 25.9 CALM 0 1 1010.7 - 0.0 - - - - - - -
21/10:30pm 26.3 SW 1 3 1010.7 - 0.0 - - - - - - -
21/10:00pm 26.6 SW 2 3 1010.4 - 0.0 - - - - - - -
21/09:30pm 27.2 SW 2 4 1010.2 - 0.0 - - - - - - -
21/09:00pm 27.3 W 2 3 1010.0 - 0.0 - - - - - - -
21/08:30pm 27.7 W 2 5 1009.8 - 0.0 - - - - - - -
21/08:00pm 28.0 W 2 5 1009.5 - 0.0 - - - - - - -
21/07:30pm 28.4 W 1 3 1009.2 - 0.0 - - - - - - -
21/07:00pm 29.2 WSW 3 6 1008.9 - 0.0 - - - - - - -
21/06:30pm 29.9 WNW 2 4 1008.8 - 0.0 - - - - - - -
21/06:00pm 30.9 WNW 2 5 1008.6 - 0.0 - - - - - - -
21/05:30pm 31.6 NW 2 5 1008.5 - 0.0 - - - - - - -
21/05:00pm 31.6 SW 3 5 1008.4 - 0.0 - - - - - - -
21/04:30pm 28.4 W 3 5 1008.2 - 0.0 - - - - - - -
21/04:00pm 27.1 W 5 13 1008.5 - 0.0 - - - - - - -
21/03:30pm 29.3 NW 6 11 1008.5 - 0.0 - - - - - - -
21/03:00pm 32.2 WSW 4 8 1008.4 - 0.0 - - - - - - -
21/02:30pm 34.5 SSW 7 9 1008.7 - 0.0 - - - - - - -
21/02:00pm 33.9 SSW 6 9 1009.2 - 0.0 - - - - - - -
21/01:30pm 34.0 SSW 6 9 1009.8 - 0.0 - - - - - - -
21/01:00pm 33.4 SSW 5 8 1010.2 - 0.0 - - - - - - -
21/12:30pm 32.9 SSW 5 8 1010.8 - 0.0 - - - - - - -
21/12:00pm 32.8 SSW 5 10 1011.2 - 0.0 - - - - - - -
21/11:30am 32.2 S 5 8 1011.6 - 0.0 - - - - - - -
21/11:00am 31.5 SSW 5 8 1011.8 - 0.0 - - - - - - -
21/10:30am 31.4 SW 5 8 1012.1 - 0.0 - - - - - - -
21/10:00am 31.0 WSW 3 7 1012.2 - 0.0 - - - - - - -
21/09:30am 30.1 W 3 6 1012.3 - 0.0 - - - - - - -
21/09:00am 28.9 SW 3 5 1012.2 - 0.2 - - - - - - -
21/08:30am 28.1 SSW 3 4 1011.9 - 0.2 - - - - - - -
21/08:00am 27.0 SSW 2 3 1011.5 - 0.2 - - - - - - -
21/07:30am 25.8 CALM 0 0 1011.0 - 0.2 - - - - - - -
21/07:00am 24.8 CALM 0 0 1010.5 - 0.0 - - - - - - -
21/06:30am 24.8 CALM 0 0 1009.9 - 0.0 - - - - - - -
21/06:00am 24.8 CALM 0 0 1009.5 - 0.0 - - - - - - -
21/05:30am 24.9 CALM 0 0 1009.1 - 0.0 - - - - - - -
21/05:00am 24.8 CALM 0 0 1008.8 - 0.0 - - - - - - -
21/04:30am 24.9 CALM 0 0 1008.4 - 0.0 - - - - - - -
21/04:00am 25.1 CALM 0 1 1008.2 - 0.0 - - - - - - -
21/03:30am 25.2 CALM 0 0 1008.3 - 0.0 - - - - - - -
21/03:00am 25.4 CALM 0 0 1008.6 - 0.0 - - - - - - -
21/02:30am 25.4 CALM 0 0 1008.9 - 0.0 - - - - - - -
21/02:00am 25.6 CALM 0 1 1009.0 - 0.0 - - - - - - -
21/01:30am 25.4 CALM 0 0 1009.2 - 0.0 - - - - - - -
21/01:00am 25.4 CALM 0 0 1009.5 - 0.0 - - - - - - -
21/12:30am 26.0 CALM 0 0 1009.7 - 0.0 - - - - - - -
21/12:00am 26.6 WSW 1 2 1009.9 - 0.0 - - - - - - -
 
Date/Time
CST
Temp
°C
Wind Pressure Rain since
9am
mm
Weather Cloud Vis
km
Sea
Height
m
Swell
Dir  Spd
kts
Gust
kts
hPa Trend Height
m
Period
s
Dir
20/11:30pm 26.6 CALM 0 1 1009.9 - 0.0 - - - - - - -
20/11:00pm 27.1 CALM 0 2 1010.0 - 0.0 - - - - - - -
20/10:30pm 27.0 W 1 2 1010.0 - 0.0 - - - - - - -
20/10:00pm 26.8 WNW 1 2 1009.7 - 0.0 - - - - - - -
20/09:30pm 26.2 CALM 0 1 1009.5 - 0.0 - - - - - - -
20/09:00pm 25.9 CALM 0 2 1009.4 - 0.0 - - - - - - -
20/08:30pm 26.2 CALM 0 0 1009.1 - 0.0 - - - - - - -
20/08:00pm 27.0 N 1 2 1008.8 - 0.0 - - - - - - -
20/07:30pm 28.2 NNW 3 5 1008.5 - 0.0 - - - - - - -
20/07:00pm 30.2 WSW 2 5 1008.0 - 0.0 - - - - - - -
20/06:30pm 30.9 WNW 3 5 1007.4 - 0.0 - - - - - - -
20/06:00pm 31.4 WNW 3 7 1007.1 - 0.0 - - - - - - -
20/05:30pm 32.9 SW 3 5 1006.7 - 0.0 - - - - - - -
20/05:00pm 32.2 SW 4 8 1006.4 - 0.0 - - - - - - -
20/04:30pm 32.6 SW 5 8 1006.4 - 0.0 - - - - - - -
20/04:00pm 32.5 SW 4 7 1006.5 - 0.0 - - - - - - -
20/03:30pm 32.8 W 4 8 1006.6 - 0.0 - - - - - - -
20/03:00pm 33.0 NW 3 6 1007.0 - 0.0 - - - - - - -
20/02:30pm 31.7 NW 3 5 1007.3 - 0.0 - - - - - - -
20/02:00pm 31.8 NW 4 7 1007.6 - 0.0 - - - - - - -
20/01:30pm 31.1 NW 3 5 1008.0 - 0.0 - - - - - - -
20/01:00pm 29.9 NW 3 6 1008.3 - 0.0 - - - - - - -
20/12:30pm 30.2 S 2 4 1008.6 - 0.0 - - - - - - -
20/12:00pm 29.9 S 3 5 1009.0 - 0.0 - - - - - - -
20/11:30am 29.1 S 4 5 1009.3 - 0.0 - - - - - - -
20/11:00am 28.4 SW 2 4 1009.6 - 0.0 - - - - - - -
20/10:30am 27.2 SSW 5 6 1010.0 - 0.0 - - - - - - -
20/10:00am 27.3 S 4 6 1009.9 - 0.0 - - - - - - -
20/09:30am 26.6 SE 3 4 1009.7 - 0.0 - - - - - - -
20/09:00am 25.8 SSE 5 9 1009.6 - 0.0 - - - - - - -
20/08:30am 25.5 WSW 2 3 1009.3 - 0.0 - - - - - - -
20/08:00am 24.7 NW 3 6 1009.4 - 0.0 - - - - - - -
20/07:30am 25.3 SSW 8 11 1009.2 - 0.0 - - - - - - -
20/07:00am 25.8 SE 2 3 1008.8 - 0.0 - - - - - - -
20/06:30am 26.1 ESE 2 4 1008.5 - 0.0 - - - - - - -
20/06:00am 26.1 ESE 2 3 1008.5 - 0.0 - - - - - - -
20/05:30am 26.3 ESE 4 5 1008.3 - 0.0 - - - - - - -
20/05:00am 26.4 W 1 3 1007.8 - 0.0 - - - - - - -
20/04:30am 26.6 W 1 2 1007.7 - 0.0 - - - - - - -
20/04:00am 26.7 W 1 3 1007.4 - 0.0 - - - - - - -
20/03:30am 26.8 W 2 4 1007.2 - 0.0 - - - - - - -
20/03:00am 26.9 WNW 3 6 1007.2 - 0.0 - - - - - - -
20/02:30am 26.6 WNW 2 4 1007.7 - 0.0 - - - - - - -
20/02:00am 26.8 WNW 2 4 1008.3 - 0.0 - - - - - - -
20/01:30am 26.8 W 2 5 1008.6 - 0.0 - - - - - - -
20/01:00am 26.5 W 2 4 1008.6 - 0.0 - - - - - - -
20/12:30am 26.2 WSW 2 3 1008.7 - 0.0 - - - - - - -
20/12:00am 26.3 SW 2 3 1008.8 - 0.0 - - - - - - -
 
Date/Time
CST
Temp
°C
Wind Pressure Rain since
9am
mm
Weather Cloud Vis
km
Sea
Height
m
Swell
Dir  Spd
kts
Gust
kts
hPa Trend Height
m
Period
s
Dir
19/11:30pm 26.4 WSW 2 4 1008.8 - 0.0 - - - - - - -
19/11:00pm 26.4 WSW 1 3 1009.0 - 0.0 - - - - - - -
19/10:30pm 26.8 SW 1 2 1009.0 - 0.0 - - - - - - -
19/10:00pm 26.9 SW 2 3 1008.7 - 0.0 - - - - - - -
19/09:30pm 27.0 WSW 2 3 1008.6 - 0.0 - - - - - - -
19/09:00pm 27.3 WSW 2 3 1008.1 - 0.0 - - - - - - -
19/08:30pm 26.9 WSW 2 4 1007.7 - 0.0 - - - - - - -
19/08:00pm 27.6 SW 2 3 1007.3 - 0.0 - - - - - - -
19/07:30pm 28.2 WSW 3 8 1006.8 - 0.0 - - - - - - -
19/07:00pm 28.9 SW 4 7 1006.7 - 0.0 - - - - - - -
19/06:30pm 29.6 SW 4 8 1006.4 - 0.0 - - - - - - -
19/06:00pm 31.1 WSW 4 8 1005.9 - 0.0 - - - - - - -
19/05:30pm 31.9 WSW 4 7 1005.8 - 0.0 - - - - - - -
19/05:00pm 32.1 WSW 5 8 1006.0 - 0.0 - - - - - - -
19/04:30pm 31.9 W 4 9 1006.1 - 0.0 - - - - - - -
19/04:00pm 32.6 WNW 4 9 1006.0 - 0.0 - - - - - - -
19/03:30pm 31.9 WNW 5 10 1005.5 - 0.0 - - - - - - -
19/03:00pm 31.7 WNW 6 11 1006.1 - 0.0 - - - - - - -
19/02:30pm 31.7 WNW 5 12 1006.7 - 0.0 - - - - - - -
19/02:00pm 32.3 WNW 6 12 1007.2 - 0.0 - - - - - - -
19/01:30pm 32.2 W 6 15 1007.7 - 0.0 - - - - - - -
19/01:00pm 32.1 WNW 6 13 1008.4 - 0.0 - - - - - - -
19/12:30pm 30.8 WNW 7 15 1009.1 - 0.0 - - - - - - -
19/12:00pm 31.0 WNW 5 13 1009.5 - 0.0 - - - - - - -
19/11:30am 31.2 WNW 6 15 1009.8 - 0.0 - - - - - - -
19/11:00am 30.5 WNW 6 11 1010.4 - 0.0 - - - - - - -
19/10:30am 30.5 W 6 11 1010.5 - 0.0 - - - - - - -
19/10:00am 29.8 WNW 4 7 1010.3 - 0.0 - - - - - - -
19/09:30am 29.3 WNW 4 11 1010.4 - 0.0 - - - - - - -
19/09:00am 29.0 W 3 7 1010.2 - 0.0 - - - - - - -
19/08:30am 28.6 W 3 6 1009.7 - 0.0 - - - - - - -
19/08:00am 28.2 W 3 7 1008.9 - 0.0 - - - - - - -
19/07:30am 27.8 WNW 3 7 1008.5 - 0.0 - - - - - - -
19/07:00am 27.4 WNW 2 5 1008.4 - 0.0 - - - - - - -
19/06:30am 27.5 W 2 5 1008.4 - 0.0 - - - - - - -
19/06:00am 27.6 WNW 3 6 1008.0 - 0.0 - - - - - - -
19/05:30am 27.7 WNW 3 7 1007.8 - 0.0 - - - - - - -
19/05:00am 27.8 WNW 3 10 1007.6 - 0.0 - - - - - - -
19/04:30am 27.9 W 3 7 1007.5 - 0.0 - - - - - - -
19/04:00am 27.9 WNW 4 9 1007.8 - 0.0 - - - - - - -
19/03:30am 27.9 WNW 3 8 1007.8 - 0.0 - - - - - - -
19/03:00am 27.9 WNW 4 7 1008.0 - 0.0 - - - - - - -
19/02:30am 27.8 NW 4 7 1008.3 - 0.0 - - - - - - -
19/02:00am 27.6 WNW 3 6 1008.9 - 0.0 - - - - - - -
19/01:30am 27.4 W 2 5 1009.3 - 0.0 - - - - - - -
19/01:00am 27.4 WNW 2 5 1009.4 - 0.0 - - - - - - -
19/12:30am 27.3 W 2 5 1009.8 - 0.0 - - - - - - -
19/12:00am 27.2 WNW 2 4 1010.1 - 0.0 - - - - - - -

Other Formats:

Comma delimited format used in spreadsheet applications
http://www.bom.gov.au/fwo/IDD60701/IDD60701.94119.axf

JavaScript Object Notation format (JSON) in row-major order
http://www.bom.gov.au/fwo/IDD60701/IDD60701.94119.json